Time;durP1;ratioP1;P1;durP2;ratioP2;P2;SDS_P1;SDS_P2;PMS_P1;PMS_P2;Temp;Humidity;BMP_temperature;BMP_pressure;BME280_temperature;BME280_humidity;BME280_pressure;Samples;Min_cycle;Max_cycle;Signal;HPM_P1;HPM_P2
2021/05/17 00:01:28;;;;;;;15.70;10.33;;;16.50;92.40;;;;;;5083971;28;20215;-73
2021/05/17 00:03:58;;;;;;;12.63;10.07;;;16.30;92.50;;;;;;5102625;28;20216;-73
2021/05/17 00:06:25;;;;;;;14.60;11.03;;;16.30;92.60;;;;;;5084564;28;20213;-73
2021/05/17 00:08:53;;;;;;;12.80;10.47;;;16.30;92.70;;;;;;5084605;28;20259;-72
2021/05/17 00:11:20;;;;;;;13.47;9.70;;;16.20;92.80;;;;;;5101982;28;20216;-73
2021/05/17 00:13:47;;;;;;;9.97;8.67;;;16.30;92.80;;;;;;5100618;28;20672;-73
2021/05/17 00:16:15;;;;;;;9.57;8.47;;;16.20;92.70;;;;;;5102195;28;20607;-73
2021/05/17 00:18:42;;;;;;;10.97;9.93;;;16.20;92.60;;;;;;5084508;28;20223;-73
2021/05/17 00:24:40;;;;;;;14.10;11.63;;;16.10;92.80;;;;;;5091433;28;20201;-72
2021/05/17 00:27:07;;;;;;;11.93;10.73;;;16.10;92.90;;;;;;5094769;28;20209;-72
2021/05/17 00:29:35;;;;;;;13.63;10.20;;;16.10;92.90;;;;;;5082638;28;20609;-72
2021/05/17 00:32:02;;;;;;;12.50;9.10;;;16.10;93.00;;;;;;5103243;28;20204;-72
2021/05/17 00:34:29;;;;;;;9.33;8.03;;;16.00;92.80;;;;;;5104866;28;20218;-72
2021/05/17 00:36:57;;;;;;;15.13;12.17;;;16.00;92.60;;;;;;5106916;28;20204;-72
2021/05/17 00:39:24;;;;;;;11.97;10.67;;;15.90;92.60;;;;;;5087782;28;20548;-72
2021/05/17 00:41:52;;;;;;;10.80;8.80;;;15.90;92.90;;;;;;5105019;28;20220;-72
2021/05/17 00:44:19;;;;;;;7.97;7.17;;;15.90;92.90;;;;;;5084990;28;20213;-72
2021/05/17 00:46:46;;;;;;;10.77;9.10;;;15.80;92.70;;;;;;5103149;28;20209;-72
2021/05/17 00:49:14;;;;;;;11.50;8.57;;;15.80;92.60;;;;;;5083117;28;20253;-72
2021/05/17 00:51:41;;;;;;;13.67;8.37;;;15.70;92.60;;;;;;5105469;28;20239;-72
2021/05/17 00:54:09;;;;;;;11.97;9.00;;;15.60;92.50;;;;;;5103964;28;20236;-72
2021/05/17 00:56:37;;;;;;;10.07;9.03;;;15.60;92.50;;;;;;5105055;28;20552;-72
2021/05/17 00:59:05;;;;;;;11.17;8.60;;;15.60;92.50;;;;;;5104488;28;20227;-72
2021/05/17 01:01:32;;;;;;;11.20;8.30;;;15.60;92.40;;;;;;5104378;28;20209;-72
2021/05/17 01:03:59;;;;;;;13.20;9.57;;;15.50;92.20;;;;;;5103792;28;20220;-72
2021/05/17 01:06:29;;;;;;;23.77;8.83;;;15.40;92.10;;;;;;5105147;28;20209;-72
2021/05/17 01:09:06;;;;;;;8.67;7.50;;;15.30;92.10;;;;;;5103253;28;20225;-72
2021/05/17 01:11:33;;;;;;;7.30;6.70;;;15.30;92.20;;;;;;5099227;28;20667;-72
2021/05/17 01:14:04;;;;;;;7.03;6.40;;;15.20;92.00;;;;;;5106235;28;20547;-72
2021/05/17 01:16:31;;;;;;;13.07;7.60;;;15.20;92.00;;;;;;5103071;28;20216;-72
2021/05/17 01:18:59;;;;;;;20.90;7.23;;;15.10;91.90;;;;;;5083816;28;20217;-72
2021/05/17 01:21:34;;;;;;;11.80;7.00;;;15.00;91.70;;;;;;5105232;28;20245;-72
2021/05/17 01:24:02;;;;;;;11.83;8.37;;;14.90;91.70;;;;;;5104281;28;20725;-72
2021/05/17 01:26:32;;;;;;;8.30;7.37;;;14.80;91.80;;;;;;5104080;28;20640;-72
2021/05/17 01:29:06;;;;;;;11.03;8.17;;;14.80;91.90;;;;;;5085793;28;20871;-72
2021/05/17 01:31:35;;;;;;;12.50;9.83;;;14.80;92.00;;;;;;5084258;28;20209;-72
2021/05/17 01:34:02;;;;;;;9.50;8.37;;;14.90;92.20;;;;;;5087469;28;20203;-72
2021/05/17 01:36:30;;;;;;;16.23;9.07;;;15.00;92.40;;;;;;5103678;28;20294;-72
2021/05/17 01:38:58;;;;;;;10.77;9.67;;;15.10;92.40;;;;;;5101950;28;20213;-72
2021/05/17 01:41:26;;;;;;;10.20;9.03;;;15.20;92.30;;;;;;5106603;28;20213;-72
2021/05/17 01:43:56;;;;;;;10.37;9.30;;;15.20;92.40;;;;;;5106157;28;20219;-72
2021/05/17 01:46:28;;;;;;;15.17;9.50;;;15.30;92.50;;;;;;5082375;28;20225;-72
2021/05/17 01:48:56;;;;;;;10.70;9.63;;;15.30;92.50;;;;;;5101116;28;20275;-72
2021/05/17 01:51:24;;;;;;;10.80;9.70;;;15.30;92.50;;;;;;5104769;28;20212;-72
2021/05/17 01:53:52;;;;;;;11.17;10.00;;;15.40;92.50;;;;;;5084910;28;20232;-72
2021/05/17 01:56:20;;;;;;;10.77;9.77;;;15.40;92.50;;;;;;5086765;28;20212;-72
2021/05/17 01:58:47;;;;;;;11.93;9.97;;;15.40;92.50;;;;;;5084873;28;20221;-72
2021/05/17 02:01:17;;;;;;;10.80;9.67;;;15.40;92.50;;;;;;5105616;28;20212;-72
2021/05/17 02:03:48;;;;;;;10.47;9.37;;;15.30;92.50;;;;;;5099168;28;20645;-72
2021/05/17 02:06:16;;;;;;;15.27;8.77;;;15.30;92.50;;;;;;5103004;28;20215;-72
2021/05/17 02:08:48;;;;;;;10.70;9.40;;;15.30;92.50;;;;;;5103130;28;20303;-72
2021/05/17 02:11:21;;;;;;;10.27;9.27;;;15.20;92.40;;;;;;5103696;28;20223;-72
2021/05/17 02:13:49;;;;;;;24.83;11.30;;;15.20;92.40;;;;;;5101854;28;20215;-72
2021/05/17 02:16:17;;;;;;;12.43;10.60;;;15.10;92.30;;;;;;5104247;28;20217;-72
2021/05/17 02:18:48;;;;;;;13.60;12.10;;;15.00;92.30;;;;;;5101217;28;20201;-72
2021/05/17 02:21:20;;;;;;;15.40;11.40;;;15.00;92.40;;;;;;5096935;28;20613;-72
2021/05/17 02:23:48;;;;;;;17.43;12.40;;;15.00;92.50;;;;;;5098204;28;20209;-72
2021/05/17 02:26:16;;;;;;;20.67;12.77;;;15.00;92.50;;;;;;5086419;28;20211;-72
2021/05/17 02:28:43;;;;;;;18.90;15.27;;;14.90;92.60;;;;;;5101278;28;20223;-72
2021/05/17 02:31:11;;;;;;;36.43;18.90;;;14.90;92.80;;;;;;5104277;28;20208;-73
2021/05/17 02:33:38;;;;;;;30.63;20.63;;;15.00;93.00;;;;;;5095223;28;20210;-73
2021/05/17 02:36:06;;;;;;;46.53;22.03;;;15.00;93.10;;;;;;5084707;28;20214;-73
2021/05/17 02:38:34;;;;;;;29.90;20.70;;;15.10;93.20;;;;;;5101319;28;20205;-73
2021/05/17 02:41:03;;;;;;;45.10;23.70;;;15.10;93.20;;;;;;5100706;28;20209;-73
2021/05/17 02:43:32;;;;;;;35.13;21.70;;;15.10;93.30;;;;;;5103605;28;20224;-73
2021/05/17 02:46:01;;;;;;;25.63;20.20;;;15.10;93.30;;;;;;5084220;28;20213;-73
2021/05/17 02:48:29;;;;;;;24.57;19.50;;;15.10;93.30;;;;;;5101926;28;20231;-73
2021/05/17 02:50:57;;;;;;;23.83;19.97;;;15.10;93.40;;;;;;5084988;28;20228;-73
2021/05/17 02:53:45;;;;;;;26.33;20.73;;;15.10;93.40;;;;;;5101501;28;20201;-73
2021/05/17 02:56:14;;;;;;;27.30;20.43;;;15.10;93.50;;;;;;5079867;28;20213;-73
2021/05/17 02:58:43;;;;;;;25.73;21.23;;;15.00;93.50;;;;;;5103398;28;20208;-73
2021/05/17 03:01:14;;;;;;;31.77;23.53;;;15.00;93.50;;;;;;5101552;28;20220;-73
2021/05/17 03:03:52;;;;;;;34.10;23.70;;;15.00;93.50;;;;;;5102620;28;20213;-73
2021/05/17 03:06:22;;;;;;;31.23;22.93;;;15.00;93.60;;;;;;5083365;28;20215;-73
2021/05/17 03:09:08;;;;;;;32.07;23.40;;;15.00;93.60;;;;;;5087213;28;20216;-73
2021/05/17 03:11:46;;;;;;;26.27;19.33;;;15.00;93.70;;;;;;5099676;28;20213;-73
2021/05/17 03:14:16;;;;;;;24.97;18.20;;;15.10;93.80;;;;;;5084287;28;20209;-73
2021/05/17 03:16:48;;;;;;;19.07;17.03;;;15.10;93.90;;;;;;5104055;28;20633;-73
2021/05/17 03:19:18;;;;;;;16.73;14.80;;;15.20;93.80;;;;;;5098992;28;20216;-73
2021/05/17 03:21:45;;;;;;;16.43;14.73;;;15.30;93.80;;;;;;5082778;28;20690;-73
2021/05/17 03:24:15;;;;;;;16.43;13.40;;;15.30;93.70;;;;;;5103433;28;20227;-73
2021/05/17 03:26:42;;;;;;;16.87;14.80;;;15.40;93.60;;;;;;5100667;28;20223;-73
2021/05/17 03:29:09;;;;;;;16.50;14.10;;;15.40;93.60;;;;;;5085262;28;20516;-73
2021/05/17 03:31:36;;;;;;;16.33;14.57;;;15.50;93.60;;;;;;5100695;28;20217;-73
2021/05/17 03:34:03;;;;;;;15.97;14.30;;;15.50;93.50;;;;;;5103013;28;20208;-73
2021/05/17 03:36:30;;;;;;;16.13;13.50;;;15.50;93.40;;;;;;5085238;28;21015;-73
2021/05/17 03:38:58;;;;;;;15.87;14.00;;;15.50;93.40;;;;;;5102879;28;20565;-73
2021/05/17 03:41:25;;;;;;;15.60;13.50;;;15.40;93.30;;;;;;5100208;28;20209;-73
2021/05/17 03:43:52;;;;;;;15.80;14.10;;;15.40;93.30;;;;;;5103286;28;20212;-73
2021/05/17 03:46:19;;;;;;;17.80;15.03;;;15.40;93.20;;;;;;5084384;28;20240;-73
2021/05/17 03:48:46;;;;;;;18.70;15.93;;;15.30;93.10;;;;;;5085216;28;20213;-73
2021/05/17 03:51:13;;;;;;;17.20;15.47;;;15.30;93.10;;;;;;5109001;28;20228;-73
2021/05/17 03:53:40;;;;;;;18.70;16.77;;;15.30;93.10;;;;;;5106037;28;20201;-73
2021/05/17 03:56:07;;;;;;;20.67;15.97;;;15.30;93.10;;;;;;5091183;28;20219;-73
2021/05/17 03:58:35;;;;;;;19.33;16.50;;;15.30;93.10;;;;;;5088351;28;20749;-73
2021/05/17 04:01:02;;;;;;;19.43;16.17;;;15.20;93.00;;;;;;5109068;28;20279;-73
2021/05/17 04:03:31;;;;;;;18.60;15.93;;;15.20;93.00;;;;;;5106094;28;20712;-73
2021/05/17 04:14:06;;;;;;;19.63;17.53;;;15.30;92.80;;;;;;5110365;28;20649;-73
2021/05/17 04:16:33;;;;;;;19.67;17.57;;;15.30;92.70;;;;;;5112508;28;20205;-73
2021/05/17 04:19:00;;;;;;;23.60;17.07;;;15.30;92.70;;;;;;5108918;28;20223;-73
2021/05/17 04:21:27;;;;;;;24.57;18.07;;;15.30;92.60;;;;;;5092328;28;20260;-73
2021/05/17 04:23:54;;;;;;;21.53;19.23;;;15.30;92.50;;;;;;5094334;28;20521;-72
2021/05/17 04:26:22;;;;;;;21.33;17.07;;;15.40;92.80;;;;;;5092484;28;20216;-72
2021/05/17 04:28:49;;;;;;;23.33;18.73;;;15.40;92.50;;;;;;5111960;28;20678;-72
2021/05/17 04:31:16;;;;;;;19.97;17.93;;;15.40;92.40;;;;;;5091997;28;20236;-72
2021/05/17 04:33:43;;;;;;;27.53;19.13;;;15.50;92.40;;;;;;5111931;28;20705;-72
2021/05/17 04:36:10;;;;;;;20.53;18.40;;;15.50;92.30;;;;;;5114097;28;20205;-73
2021/05/17 04:38:37;;;;;;;24.63;20.07;;;15.60;92.30;;;;;;5093636;28;20223;-73
2021/05/17 04:41:04;;;;;;;23.07;20.50;;;15.60;92.30;;;;;;5092266;28;20648;-73
2021/05/17 04:43:32;;;;;;;26.77;21.93;;;15.70;92.20;;;;;;5105932;28;20307;-73
2021/05/17 04:45:59;;;;;;;24.97;21.93;;;15.80;92.10;;;;;;5106275;28;20250;-73
2021/05/17 04:48:26;;;;;;;24.23;21.63;;;15.80;92.10;;;;;;5104398;28;20227;-73
2021/05/17 04:50:54;;;;;;;25.20;21.10;;;15.90;92.00;;;;;;5087377;28;20229;-73
2021/05/17 04:53:21;;;;;;;25.27;21.70;;;16.00;91.90;;;;;;5104263;28;20692;-73
2021/05/17 04:55:48;;;;;;;26.10;22.13;;;16.10;91.80;;;;;;5105499;28;20217;-73
2021/05/17 04:58:15;;;;;;;27.70;23.87;;;16.10;91.70;;;;;;5089535;28;20205;-73
2021/05/17 05:00:42;;;;;;;25.93;22.00;;;16.20;91.70;;;;;;5104908;28;20224;-73
2021/05/17 05:03:09;;;;;;;26.33;22.37;;;16.30;91.60;;;;;;5105690;28;20213;-73
2021/05/17 05:05:36;;;;;;;24.70;22.13;;;16.50;91.50;;;;;;5104563;28;20223;-73
2021/05/17 05:08:04;;;;;;;25.97;22.57;;;16.50;91.30;;;;;;5104938;28;20224;-73
2021/05/17 05:10:31;;;;;;;25.70;21.63;;;16.70;91.10;;;;;;5085198;28;20232;-73
2021/05/17 05:13:04;;;;;;;27.70;23.23;;;16.80;91.00;;;;;;5107039;28;20232;-73
2021/05/17 05:15:32;;;;;;;26.13;22.60;;;16.80;90.90;;;;;;5107142;28;20209;-73
2021/05/17 05:17:59;;;;;;;26.00;22.33;;;16.90;90.80;;;;;;5085035;28;20216;-73
2021/05/17 05:20:28;;;;;;;27.70;23.23;;;17.00;90.70;;;;;;5105507;28;20433;-73
2021/05/17 05:22:56;;;;;;;24.37;21.70;;;17.10;90.70;;;;;;5103000;28;20241;-73
2021/05/17 05:25:27;;;;;;;27.80;22.97;;;17.20;90.50;;;;;;5105621;28;20217;-73
2021/05/17 05:27:56;;;;;;;26.83;21.47;;;17.30;90.40;;;;;;5098581;28;20389;-73
2021/05/17 05:32:54;;;;;;;24.83;20.73;;;17.60;90.10;;;;;;5098784;28;20308;-73
2021/05/17 05:35:21;;;;;;;22.57;20.20;;;17.70;89.80;;;;;;5099307;28;20219;-73
2021/05/17 05:37:48;;;;;;;22.53;20.13;;;18.00;89.10;;;;;;5098623;28;20668;-73
2021/05/17 05:40:15;;;;;;;23.80;21.50;;;18.20;88.20;;;;;;5102001;28;20228;-73
2021/05/17 05:42:42;;;;;;;22.77;20.03;;;18.50;87.50;;;;;;5102016;28;20600;-73
2021/05/17 05:45:11;;;;;;;24.93;19.23;;;18.70;86.90;;;;;;5100404;28;20212;-73
2021/05/17 05:47:38;;;;;;;21.50;19.30;;;18.80;86.40;;;;;;5098646;28;20215;-73
2021/05/17 05:50:06;;;;;;;20.43;18.30;;;18.90;85.70;;;;;;5100597;28;20237;-73
2021/05/17 05:52:33;;;;;;;18.33;16.53;;;19.00;85.20;;;;;;5104686;28;20333;-73
2021/05/17 05:55:04;;;;;;;18.90;16.97;;;19.10;84.70;;;;;;5101476;28;20205;-73
2021/05/17 05:57:38;;;;;;;19.50;15.47;;;19.20;83.70;;;;;;5086737;28;20215;-73
2021/05/17 06:00:07;;;;;;;19.67;17.70;;;19.30;82.80;;;;;;5088226;28;20216;-73
2021/05/17 06:02:34;;;;;;;25.43;17.33;;;19.40;81.90;;;;;;5103744;28;20637;-73
2021/05/17 06:05:01;;;;;;;20.17;17.37;;;19.40;82.00;;;;;;5103607;28;20554;-73
2021/05/17 06:07:28;;;;;;;18.17;15.97;;;19.50;81.70;;;;;;5100708;28;20216;-73
2021/05/17 06:09:55;;;;;;;17.73;15.87;;;19.60;81.40;;;;;;5103330;28;20217;-73
2021/05/17 06:12:22;;;;;;;17.47;15.77;;;19.70;80.90;;;;;;5099123;28;20205;-73
2021/05/17 06:14:56;;;;;;;17.53;15.97;;;19.80;80.60;;;;;;5105994;28;20299;-73
2021/05/17 06:17:23;;;;;;;15.10;13.67;;;19.80;79.20;;;;;;5086442;28;20689;-73
2021/05/17 06:19:53;;;;;;;16.13;14.53;;;19.80;79.00;;;;;;5102323;28;20650;-73
2021/05/17 06:22:22;;;;;;;15.37;13.70;;;19.90;79.20;;;;;;5086620;28;20237;-72
2021/05/17 06:24:49;;;;;;;16.47;12.83;;;20.00;78.90;;;;;;5083967;28;20209;-73
2021/05/17 06:27:16;;;;;;;16.37;14.73;;;20.20;77.50;;;;;;5104077;28;20667;-73
2021/05/17 06:29:44;;;;;;;18.23;14.50;;;20.30;77.10;;;;;;5100921;28;20208;-73
2021/05/17 06:32:14;;;;;;;16.70;13.50;;;20.40;76.80;;;;;;5104762;28;20208;-73
2021/05/17 06:34:42;;;;;;;15.27;13.77;;;20.50;76.40;;;;;;5101157;28;20406;-73
2021/05/17 06:37:09;;;;;;;15.63;14.13;;;20.60;75.30;;;;;;5101349;28;20204;-73
2021/05/17 06:39:37;;;;;;;13.37;12.07;;;20.60;75.50;;;;;;5101569;28;20277;-73
2021/05/17 06:42:04;;;;;;;16.90;13.23;;;20.70;74.70;;;;;;5086651;28;20216;-73
2021/05/17 06:44:32;;;;;;;14.23;12.50;;;20.80;75.20;;;;;;5100778;28;20652;-73
2021/05/17 06:46:59;;;;;;;15.13;11.83;;;21.10;73.90;;;;;;5105274;28;20216;-73
2021/05/17 06:49:29;;;;;;;11.03;9.97;;;21.20;72.90;;;;;;5096827;28;20213;-73
2021/05/17 06:51:56;;;;;;;14.90;10.27;;;21.30;72.80;;;;;;5093523;28;20231;-73
2021/05/17 06:54:28;;;;;;;12.10;10.90;;;21.50;71.00;;;;;;5104448;28;20223;-73
2021/05/17 06:59:32;;;;;;;11.77;10.57;;;21.70;70.60;;;;;;5102995;28;20238;-72
2021/05/17 07:02:00;;;;;;;12.83;10.93;;;21.80;70.60;;;;;;5102738;28;20241;-72
2021/05/17 07:04:29;;;;;;;11.17;10.07;;;22.00;69.20;;;;;;5104645;28;20255;-73
2021/05/17 07:06:59;;;;;;;10.43;9.60;;;22.10;69.20;;;;;;5101825;28;20295;-73
2021/05/17 07:12:14;;;;;;;11.30;10.13;;;22.30;68.70;;;;;;5094270;28;20233;-73
2021/05/17 07:14:41;;;;;;;11.67;10.23;;;22.30;67.90;;;;;;5104626;28;20220;-73
2021/05/17 07:17:08;;;;;;;9.70;8.70;;;22.40;67.60;;;;;;5085039;28;20204;-73
2021/05/17 07:19:35;;;;;;;14.77;8.50;;;22.40;66.60;;;;;;5101509;28;20224;-73
2021/05/17 07:24:49;;;;;;;9.97;8.97;;;22.60;66.40;;;;;;5096564;28;20209;-73
2021/05/17 07:27:16;;;;;;;11.20;9.03;;;22.80;66.10;;;;;;5095947;28;20209;-73
2021/05/17 07:29:43;;;;;;;11.57;9.53;;;23.00;66.40;;;;;;5096523;28;20224;-72
2021/05/17 07:32:11;;;;;;;10.53;9.17;;;23.20;65.00;;;;;;5096377;28;20592;-72
2021/05/17 07:34:39;;;;;;;10.73;9.63;;;23.40;63.10;;;;;;5096007;28;20248;-72
2021/05/17 07:37:07;;;;;;;10.53;9.53;;;23.30;63.00;;;;;;5100242;28;20608;-73
2021/05/17 07:39:34;;;;;;;9.43;8.57;;;23.20;63.20;;;;;;5096999;28;20295;-73
2021/05/17 07:42:03;;;;;;;10.30;8.10;;;22.90;63.00;;;;;;5094513;28;20208;-73
2021/05/17 07:44:30;;;;;;;10.33;8.63;;;22.60;63.00;;;;;;5101283;28;20224;-72
2021/05/17 07:46:59;;;;;;;12.60;8.37;;;22.50;63.60;;;;;;5108483;28;20216;-72
2021/05/17 07:49:38;;;;;;;9.33;8.37;;;22.40;63.60;;;;;;5104735;28;20223;-72
2021/05/17 07:52:06;;;;;;;9.80;8.90;;;22.50;64.50;;;;;;5106104;28;20236;-73
2021/05/17 07:54:35;;;;;;;11.73;9.30;;;22.70;64.20;;;;;;5088763;28;20212;-73
2021/05/17 07:57:05;;;;;;;8.53;7.63;;;22.80;64.00;;;;;;5105430;28;20648;-72
2021/05/17 07:59:33;;;;;;;10.00;8.27;;;22.90;64.00;;;;;;5089021;28;20656;-72
2021/05/17 08:02:01;;;;;;;11.53;8.53;;;23.00;63.90;;;;;;5103786;28;20638;-72
2021/05/17 08:04:28;;;;;;;9.30;7.80;;;23.00;64.40;;;;;;5085559;28;20209;-72
2021/05/17 08:06:55;;;;;;;15.83;7.77;;;23.20;64.30;;;;;;5106989;28;20212;-72
2021/05/17 08:09:23;;;;;;;9.57;8.53;;;23.50;62.20;;;;;;5086963;28;20321;-72
2021/05/17 08:11:51;;;;;;;8.60;7.60;;;23.60;61.90;;;;;;5103518;28;20311;-72
2021/05/17 08:14:19;;;;;;;8.70;7.83;;;23.70;62.40;;;;;;5106601;28;20575;-71
2021/05/17 08:16:47;;;;;;;10.17;8.30;;;24.00;62.20;;;;;;5104715;28;20205;-72
2021/05/17 08:19:14;;;;;;;10.73;8.00;;;24.10;61.60;;;;;;5106662;28;20215;-72
2021/05/17 08:21:42;;;;;;;12.80;9.23;;;24.30;60.30;;;;;;5104050;28;20255;-72
2021/05/17 08:24:10;;;;;;;14.50;10.33;;;24.20;59.70;;;;;;5088761;28;20212;-72
2021/05/17 08:26:37;;;;;;;9.40;8.50;;;24.10;59.20;;;;;;5103970;28;20223;-73
2021/05/17 08:29:06;;;;;;;10.50;9.27;;;24.00;59.20;;;;;;5106592;28;20208;-73
2021/05/17 08:31:33;;;;;;;11.07;9.03;;;23.80;59.50;;;;;;5103570;28;20264;-72
2021/05/17 08:34:01;;;;;;;9.20;8.30;;;23.90;59.80;;;;;;5106734;28;20596;-73
2021/05/17 08:36:28;;;;;;;9.40;8.47;;;24.30;60.90;;;;;;5104068;28;20849;-73
2021/05/17 08:38:55;;;;;;;11.57;9.80;;;24.80;59.30;;;;;;5106334;28;20210;-72
2021/05/17 08:41:23;;;;;;;13.83;9.90;;;25.20;57.90;;;;;;5103245;28;20211;-72
2021/05/17 08:43:50;;;;;;;12.03;9.40;;;25.40;56.80;;;;;;5103263;28;20240;-72
2021/05/17 08:46:17;;;;;;;8.60;7.80;;;25.30;57.10;;;;;;5106566;28;20212;-72
2021/05/17 08:48:49;;;;;;;9.23;8.30;;;25.10;57.60;;;;;;5103146;28;20217;-72
2021/05/17 08:51:26;;;;;;;8.40;7.50;;;25.00;56.20;;;;;;5080894;28;20454;-72
2021/05/17 08:53:56;;;;;;;9.03;7.47;;;24.90;55.90;;;;;;5101320;28;20224;-72
2021/05/17 08:56:23;;;;;;;11.40;8.73;;;24.60;55.70;;;;;;5104981;28;20220;-72
2021/05/17 08:58:58;;;;;;;12.33;9.33;;;24.50;57.10;;;;;;5103961;28;20640;-72
2021/05/17 09:01:25;;;;;;;12.90;9.47;;;24.70;57.10;;;;;;5103633;28;20651;-72
2021/05/17 09:04:00;;;;;;;11.70;9.30;;;24.90;57.10;;;;;;5105681;28;20219;-72
2021/05/17 09:06:37;;;;;;;11.77;9.03;;;24.80;56.70;;;;;;5103267;28;20487;-72
2021/05/17 09:09:20;;;;;;;11.37;10.17;;;24.70;57.10;;;;;;5100368;28;20213;-72
2021/05/17 09:11:51;;;;;;;10.43;8.67;;;24.40;58.00;;;;;;5101023;28;20233;-72
2021/05/17 09:14:19;;;;;;;9.10;8.07;;;24.10;56.40;;;;;;5106118;28;20542;-72
2021/05/17 09:16:48;;;;;;;10.67;9.17;;;23.70;57.70;;;;;;5102569;28;20565;-72
2021/05/17 09:19:18;;;;;;;12.23;9.53;;;23.80;58.90;;;;;;5098303;28;20209;-72
2021/05/17 09:22:05;;;;;;;10.87;9.77;;;24.20;58.90;;;;;;5098677;28;20245;-72
2021/05/17 09:24:54;;;;;;;13.10;10.43;;;24.70;57.70;;;;;;5103327;28;20228;-72
2021/05/17 09:27:29;;;;;;;12.07;10.33;;;25.10;56.30;;;;;;5101868;28;20220;-72
2021/05/17 09:29:58;;;;;;;10.90;9.90;;;25.40;55.70;;;;;;5103127;28;20228;-72
2021/05/17 09:32:25;;;;;;;10.47;9.30;;;25.70;55.70;;;;;;5104719;28;20234;-72
2021/05/17 09:34:59;;;;;;;10.47;9.40;;;25.90;54.80;;;;;;5103066;28;20292;-72
2021/05/17 09:37:28;;;;;;;10.27;9.30;;;25.90;55.00;;;;;;5099126;28;20231;-72
2021/05/17 09:39:55;;;;;;;13.37;9.67;;;26.10;54.70;;;;;;5098103;28;20538;-72
2021/05/17 09:42:25;;;;;;;10.93;9.83;;;26.30;54.20;;;;;;5099498;28;20209;-72
2021/05/17 09:44:53;;;;;;;11.23;10.07;;;26.30;53.50;;;;;;5053455;28;20233;-71
2021/05/17 09:47:24;;;;;;;11.73;10.53;;;26.20;54.10;;;;;;5101342;28;20217;-72
2021/05/17 09:49:55;;;;;;;17.43;9.87;;;26.00;52.80;;;;;;5102652;28;20664;-72
2021/05/17 09:52:29;;;;;;;10.00;9.00;;;25.90;53.50;;;;;;5103839;28;20242;-71
2021/05/17 09:55:10;;;;;;;8.90;8.13;;;25.80;53.90;;;;;;5104235;28;20209;-72
2021/05/17 09:57:48;;;;;;;10.60;8.10;;;25.70;53.40;;;;;;5098351;28;20620;-72
2021/05/17 10:00:26;;;;;;;11.63;7.43;;;25.60;53.70;;;;;;5103887;28;20219;-72
2021/05/17 10:02:54;;;;;;;10.37;9.30;;;25.60;55.20;;;;;;5101891;28;20211;-72
2021/05/17 10:05:28;;;;;;;9.57;8.37;;;25.80;54.60;;;;;;5084127;28;20213;-72
2021/05/17 10:08:00;;;;;;;9.53;8.63;;;26.00;54.10;;;;;;5097845;28;20560;-72
2021/05/17 10:10:41;;;;;;;8.20;7.43;;;26.10;52.50;;;;;;5102389;28;20221;-72
2021/05/17 10:13:08;;;;;;;9.57;8.63;;;26.20;53.00;;;;;;5080761;28;20246;-72
2021/05/17 10:15:36;;;;;;;8.73;7.90;;;26.30;51.80;;;;;;5103545;28;20739;-71
2021/05/17 10:18:15;;;;;;;8.23;7.53;;;26.30;52.00;;;;;;5101480;28;20240;-71
2021/05/17 10:20:43;;;;;;;7.30;6.37;;;26.60;51.50;;;;;;5097506;28;20223;-72
2021/05/17 10:23:13;;;;;;;6.87;6.10;;;26.70;51.00;;;;;;5104760;28;20622;-72
2021/05/17 10:25:43;;;;;;;7.90;6.97;;;26.90;50.90;;;;;;5101415;28;20278;-72
2021/05/17 10:28:14;;;;;;;10.27;7.60;;;27.10;50.60;;;;;;5103756;28;20285;-72
2021/05/17 10:30:42;;;;;;;8.83;7.93;;;27.10;49.00;;;;;;5100797;28;20227;-71
2021/05/17 10:33:14;;;;;;;9.53;7.37;;;26.90;49.50;;;;;;5102600;28;20233;-72
2021/05/17 10:35:41;;;;;;;8.17;7.20;;;26.70;49.90;;;;;;5103734;28;20211;-72
2021/05/17 10:38:17;;;;;;;10.17;6.80;;;26.40;50.90;;;;;;5102631;28;20216;-72
2021/05/17 10:40:54;;;;;;;6.63;5.93;;;26.10;50.70;;;;;;5100249;28;20200;-71
2021/05/17 10:46:46;;;;;;;8.10;6.10;;;26.10;51.10;;;;;;5084251;28;20205;-71
2021/05/17 10:49:35;;;;;;;6.20;4.67;;;26.50;51.40;;;;;;5100025;28;20216;-71
2021/05/17 10:52:10;;;;;;;6.20;3.53;;;26.90;50.20;;;;;;5101227;28;20251;-72
2021/05/17 10:54:41;;;;;;;4.60;3.20;;;27.30;49.30;;;;;;5096885;28;20242;-72
2021/05/17 10:57:31;;;;;;;6.80;5.23;;;27.60;47.90;;;;;;5101552;28;20201;-72
2021/05/17 11:02:45;;;;;;;10.83;6.40;;;27.50;47.50;;;;;;5101896;28;20527;-72
2021/05/17 11:05:22;;;;;;;5.90;4.67;;;26.80;48.50;;;;;;5084253;28;20208;-72
2021/05/17 11:07:50;;;;;;;5.50;4.47;;;26.60;49.80;;;;;;5096508;28;20223;-71
2021/05/17 11:10:24;;;;;;;5.57;4.20;;;26.60;48.60;;;;;;5096380;28;20209;-71
2021/05/17 11:12:51;;;;;;;5.07;4.57;;;26.80;48.40;;;;;;5097742;28;20232;-73
2021/05/17 11:15:48;;;;;;;6.70;5.93;;;27.00;47.80;;;;;;5100711;28;20213;-71
2021/05/17 11:18:15;;;;;;;6.60;6.00;;;27.10;48.20;;;;;;5098151;28;20450;-71
2021/05/17 11:20:50;;;;;;;7.00;5.63;;;26.80;47.80;;;;;;5103235;28;20512;-71
2021/05/17 11:23:25;;;;;;;4.57;3.97;;;26.50;49.00;;;;;;5102092;28;20305;-72
2021/05/17 11:28:34;;;;;;;7.40;4.10;;;26.50;47.20;;;;;;5104937;28;20303;-71
2021/05/17 11:31:21;;;;;;;3.87;3.10;;;26.40;47.00;;;;;;5097811;28;20216;-71
2021/05/17 11:33:57;;;;;;;4.20;3.30;;;26.50;48.60;;;;;;5095901;28;20219;-71
2021/05/17 11:36:28;;;;;;;5.63;3.97;;;26.50;47.90;;;;;;5093948;28;20200;-71
2021/05/17 11:39:04;;;;;;;4.50;4.10;;;26.50;45.60;;;;;;5101190;28;20209;-71
2021/05/17 11:41:33;;;;;;;4.13;3.23;;;26.40;46.60;;;;;;5101408;28;20219;-71
2021/05/17 11:44:08;;;;;;;5.73;2.97;;;26.40;46.50;;;;;;5084470;28;20223;-72
2021/05/17 11:46:49;;;;;;;3.77;3.40;;;26.50;46.50;;;;;;5100178;28;20238;-72
2021/05/17 11:49:20;;;;;;;7.13;4.13;;;26.60;45.20;;;;;;5081416;28;20224;-72
2021/05/17 11:51:50;;;;;;;5.80;3.80;;;26.60;45.80;;;;;;5101560;28;20243;-72
2021/05/17 11:54:19;;;;;;;7.33;3.73;;;26.80;45.90;;;;;;5102160;28;20552;-72
2021/05/17 11:56:54;;;;;;;14.03;4.80;;;26.90;45.30;;;;;;5101619;28;20208;-72
2021/05/17 11:59:23;;;;;;;5.00;2.97;;;26.70;45.30;;;;;;5082047;28;20291;-72
2021/05/17 12:01:53;;;;;;;6.40;2.60;;;26.50;45.60;;;;;;5095810;28;20220;-72
2021/05/17 12:04:28;;;;;;;2.73;1.70;;;26.60;45.60;;;;;;5095782;28;20270;-72
2021/05/17 12:07:09;;;;;;;2.73;1.50;;;26.70;44.00;;;;;;5098905;28;20230;-72
2021/05/17 12:09:38;;;;;;;2.07;1.80;;;26.90;42.30;;;;;;5100420;28;20304;-72
2021/05/17 12:12:08;;;;;;;6.80;2.70;;;27.00;42.70;;;;;;5102567;28;20232;-72
2021/05/17 12:14:37;;;;;;;4.40;3.27;;;27.00;43.00;;;;;;5099852;28;20224;-72
2021/05/17 12:17:06;;;;;;;4.13;2.67;;;27.00;43.80;;;;;;5095906;28;20217;-72
2021/05/17 12:19:34;;;;;;;6.00;4.00;;;27.00;43.20;;;;;;5095795;28;20216;-72
2021/05/17 12:22:10;;;;;;;6.13;2.63;;;27.00;43.20;;;;;;5091932;28;20245;-72
2021/05/17 12:24:37;;;;;;;3.37;2.00;;;27.00;43.00;;;;;;5102220;28;20218;-72
2021/05/17 12:27:11;;;;;;;2.67;1.60;;;26.90;42.40;;;;;;5101882;28;20212;-71
2021/05/17 12:30:05;;;;;;;4.20;2.40;;;26.90;40.70;;;;;;5104974;28;20558;-71
2021/05/17 12:32:32;;;;;;;1.83;1.57;;;26.90;40.50;;;;;;5103386;28;20229;-71
2021/05/17 12:35:04;;;;;;;5.80;1.77;;;26.80;42.20;;;;;;5106267;28;20619;-71
2021/05/17 12:37:34;;;;;;;2.20;1.60;;;26.80;40.80;;;;;;5103965;28;20200;-71
2021/05/17 12:40:26;;;;;;;2.43;1.77;;;26.80;41.20;;;;;;5107897;28;20213;-71
2021/05/17 12:43:10;;;;;;;1.13;1.03;;;26.90;42.30;;;;;;5102959;28;20209;-71
2021/05/17 12:45:48;;;;;;;2.60;0.80;;;26.90;41.50;;;;;;5099760;28;20228;-71
2021/05/17 12:48:33;;;;;;;3.30;0.63;;;27.00;37.80;;;;;;5104970;28;20219;-71
2021/05/17 12:51:17;;;;;;;2.80;0.73;;;27.10;37.30;;;;;;5090879;28;20217;-71
2021/05/17 12:53:45;;;;;;;3.33;0.80;;;27.20;37.20;;;;;;5104518;28;20247;-71
2021/05/17 12:56:41;;;;;;;4.90;0.97;;;27.30;35.90;;;;;;5099741;28;20216;-72
2021/05/17 12:59:11;;;;;;;1.43;0.63;;;27.30;35.10;;;;;;5083708;28;20243;-71
2021/05/17 13:01:40;;;;;;;1.80;0.90;;;27.20;35.80;;;;;;5106489;28;20213;-71
2021/05/17 13:04:08;;;;;;;0.87;0.63;;;27.10;35.30;;;;;;5103238;28;20680;-72
2021/05/17 13:06:36;;;;;;;0.70;0.50;;;27.20;34.80;;;;;;5105486;28;20652;-72
2021/05/17 13:09:16;;;;;;;0.80;0.60;;;27.20;34.50;;;;;;5106425;28;20288;-71
2021/05/17 13:11:43;;;;;;;10.73;1.60;;;27.30;35.20;;;;;;5100074;28;20217;-72
2021/05/17 13:14:12;;;;;;;2.30;0.60;;;27.20;31.60;;;;;;5105524;28;20219;-72
2021/05/17 13:16:40;;;;;;;2.70;0.60;;;27.20;30.60;;;;;;5102424;28;20548;-71
2021/05/17 13:31:03;;;;;;;4.60;0.73;;;27.10;32.40;;;;;;5099472;28;20213;-71
2021/05/17 13:33:38;;;;;;;2.77;0.60;;;27.00;31.90;;;;;;5103531;28;20242;-71